sensor_id;sensor_type;location;lat;lon;timestamp;P1;durP1;ratioP1;P2;durP2;ratioP2
3175;SDS011;1599;51.564;6.990;2023-07-31T00:00:00;2.87;;;1.70;;
3175;SDS011;1599;51.564;6.990;2023-07-31T00:02:27;3.47;;;2.10;;
3175;SDS011;1599;51.564;6.990;2023-07-31T00:04:53;4.50;;;2.63;;
3175;SDS011;1599;51.564;6.990;2023-07-31T00:07:19;5.20;;;2.13;;
3175;SDS011;1599;51.564;6.990;2023-07-31T00:09:44;5.83;;;2.70;;
3175;SDS011;1599;51.564;6.990;2023-07-31T00:12:10;6.73;;;3.27;;
3175;SDS011;1599;51.564;6.990;2023-07-31T00:14:36;9.27;;;5.30;;
3175;SDS011;1599;51.564;6.990;2023-07-31T00:17:02;12.97;;;4.80;;
3175;SDS011;1599;51.564;6.990;2023-07-31T00:19:37;11.20;;;5.20;;
3175;SDS011;1599;51.564;6.990;2023-07-31T00:22:03;11.07;;;5.60;;
3175;SDS011;1599;51.564;6.990;2023-07-31T00:24:29;15.33;;;5.90;;
3175;SDS011;1599;51.564;6.990;2023-07-31T00:27:04;16.30;;;6.80;;
3175;SDS011;1599;51.564;6.990;2023-07-31T00:29:39;17.80;;;7.20;;
3175;SDS011;1599;51.564;6.990;2023-07-31T00:32:05;13.60;;;7.30;;
3175;SDS011;1599;51.564;6.990;2023-07-31T00:34:31;22.27;;;7.90;;
3175;SDS011;1599;51.564;6.990;2023-07-31T00:36:57;13.00;;;6.63;;
3175;SDS011;1599;51.564;6.990;2023-07-31T00:39:23;16.80;;;6.90;;
3175;SDS011;1599;51.564;6.990;2023-07-31T00:41:49;23.10;;;8.57;;
3175;SDS011;1599;51.564;6.990;2023-07-31T00:44:15;17.90;;;7.77;;
3175;SDS011;1599;51.564;6.990;2023-07-31T00:46:47;16.13;;;7.33;;
3175;SDS011;1599;51.564;6.990;2023-07-31T00:49:13;22.23;;;9.07;;
3175;SDS011;1599;51.564;6.990;2023-07-31T00:51:39;22.50;;;9.40;;
3175;SDS011;1599;51.564;6.990;2023-07-31T00:54:14;28.53;;;10.77;;
3175;SDS011;1599;51.564;6.990;2023-07-31T00:56:40;26.43;;;8.73;;
3175;SDS011;1599;51.564;6.990;2023-07-31T00:59:09;21.90;;;7.60;;
3175;SDS011;1599;51.564;6.990;2023-07-31T01:01:35;29.13;;;9.40;;
3175;SDS011;1599;51.564;6.990;2023-07-31T01:04:01;24.60;;;8.23;;
3175;SDS011;1599;51.564;6.990;2023-07-31T01:06:34;20.43;;;8.27;;
3175;SDS011;1599;51.564;6.990;2023-07-31T01:12:20;24.37;;;8.30;;
3175;SDS011;1599;51.564;6.990;2023-07-31T01:14:52;22.53;;;7.80;;
3175;SDS011;1599;51.564;6.990;2023-07-31T01:17:28;19.83;;;8.53;;
3175;SDS011;1599;51.564;6.990;2023-07-31T01:19:55;22.07;;;8.30;;
3175;SDS011;1599;51.564;6.990;2023-07-31T01:31:03;27.70;;;7.47;;
3175;SDS011;1599;51.564;6.990;2023-07-31T01:33:34;28.00;;;7.73;;
3175;SDS011;1599;51.564;6.990;2023-07-31T01:36:02;21.13;;;7.10;;
3175;SDS011;1599;51.564;6.990;2023-07-31T01:38:31;22.00;;;7.73;;
3175;SDS011;1599;51.564;6.990;2023-07-31T01:40:57;19.53;;;7.83;;
3175;SDS011;1599;51.564;6.990;2023-07-31T01:43:23;23.37;;;7.27;;
3175;SDS011;1599;51.564;6.990;2023-07-31T01:45:49;20.43;;;7.30;;
3175;SDS011;1599;51.564;6.990;2023-07-31T01:48:15;17.90;;;7.07;;
3175;SDS011;1599;51.564;6.990;2023-07-31T01:50:41;23.60;;;6.40;;
3175;SDS011;1599;51.564;6.990;2023-07-31T01:53:07;25.00;;;7.20;;
3175;SDS011;1599;51.564;6.990;2023-07-31T01:55:33;21.87;;;7.77;;
3175;SDS011;1599;51.564;6.990;2023-07-31T01:57:59;18.70;;;6.37;;
3175;SDS011;1599;51.564;6.990;2023-07-31T02:00:34;14.57;;;7.80;;
3175;SDS011;1599;51.564;6.990;2023-07-31T02:03:03;16.30;;;6.40;;
3175;SDS011;1599;51.564;6.990;2023-07-31T02:05:29;18.93;;;7.50;;
3175;SDS011;1599;51.564;6.990;2023-07-31T02:07:55;17.60;;;6.40;;
3175;SDS011;1599;51.564;6.990;2023-07-31T02:10:23;20.03;;;7.90;;
3175;SDS011;1599;51.564;6.990;2023-07-31T02:12:49;15.20;;;6.30;;
3175;SDS011;1599;51.564;6.990;2023-07-31T02:15:15;25.17;;;7.50;;
3175;SDS011;1599;51.564;6.990;2023-07-31T02:17:43;14.73;;;5.43;;
3175;SDS011;1599;51.564;6.990;2023-07-31T02:20:09;22.00;;;6.73;;
3175;SDS011;1599;51.564;6.990;2023-07-31T02:22:35;19.70;;;6.83;;
3175;SDS011;1599;51.564;6.990;2023-07-31T02:25:01;19.20;;;6.60;;
3175;SDS011;1599;51.564;6.990;2023-07-31T02:27:27;20.03;;;7.00;;
3175;SDS011;1599;51.564;6.990;2023-07-31T02:29:53;22.27;;;6.00;;
3175;SDS011;1599;51.564;6.990;2023-07-31T02:32:25;15.63;;;7.40;;
3175;SDS011;1599;51.564;6.990;2023-07-31T02:34:50;19.13;;;6.37;;
3175;SDS011;1599;51.564;6.990;2023-07-31T02:37:16;20.47;;;6.80;;
3175;SDS011;1599;51.564;6.990;2023-07-31T02:39:42;21.10;;;7.97;;
3175;SDS011;1599;51.564;6.990;2023-07-31T02:42:08;13.73;;;6.70;;
3175;SDS011;1599;51.564;6.990;2023-07-31T02:44:34;20.57;;;6.70;;
3175;SDS011;1599;51.564;6.990;2023-07-31T02:47:00;21.03;;;6.57;;
3175;SDS011;1599;51.564;6.990;2023-07-31T02:49:25;20.50;;;6.80;;
3175;SDS011;1599;51.564;6.990;2023-07-31T02:51:51;19.43;;;6.33;;
3175;SDS011;1599;51.564;6.990;2023-07-31T02:54:19;13.63;;;7.17;;
3175;SDS011;1599;51.564;6.990;2023-07-31T02:56:46;13.67;;;6.17;;
3175;SDS011;1599;51.564;6.990;2023-07-31T02:59:13;18.77;;;7.50;;
3175;SDS011;1599;51.564;6.990;2023-07-31T03:01:39;20.30;;;5.90;;
3175;SDS011;1599;51.564;6.990;2023-07-31T03:04:08;15.83;;;7.43;;
3175;SDS011;1599;51.564;6.990;2023-07-31T03:06:33;19.47;;;7.50;;
3175;SDS011;1599;51.564;6.990;2023-07-31T03:08:59;18.47;;;7.40;;
3175;SDS011;1599;51.564;6.990;2023-07-31T03:11:25;16.30;;;6.93;;
3175;SDS011;1599;51.564;6.990;2023-07-31T03:13:51;18.03;;;7.33;;
3175;SDS011;1599;51.564;6.990;2023-07-31T03:16:17;15.03;;;7.10;;
3175;SDS011;1599;51.564;6.990;2023-07-31T03:18:43;13.73;;;6.90;;
3175;SDS011;1599;51.564;6.990;2023-07-31T03:21:08;28.80;;;7.30;;
3175;SDS011;1599;51.564;6.990;2023-07-31T03:23:34;17.30;;;7.23;;
3175;SDS011;1599;51.564;6.990;2023-07-31T03:26:01;15.37;;;6.97;;
3175;SDS011;1599;51.564;6.990;2023-07-31T03:28:30;14.60;;;7.50;;
3175;SDS011;1599;51.564;6.990;2023-07-31T03:30:56;19.57;;;6.80;;
3175;SDS011;1599;51.564;6.990;2023-07-31T03:33:22;22.30;;;7.53;;
3175;SDS011;1599;51.564;6.990;2023-07-31T03:35:48;19.73;;;6.57;;
3175;SDS011;1599;51.564;6.990;2023-07-31T03:38:14;27.63;;;8.20;;
3175;SDS011;1599;51.564;6.990;2023-07-31T03:40:39;17.53;;;6.07;;
3175;SDS011;1599;51.564;6.990;2023-07-31T03:43:05;16.90;;;6.83;;
3175;SDS011;1599;51.564;6.990;2023-07-31T03:45:31;24.77;;;6.97;;
3175;SDS011;1599;51.564;6.990;2023-07-31T03:47:57;16.63;;;7.40;;
3175;SDS011;1599;51.564;6.990;2023-07-31T03:50:23;20.50;;;6.00;;
3175;SDS011;1599;51.564;6.990;2023-07-31T03:52:50;19.30;;;7.00;;
3175;SDS011;1599;51.564;6.990;2023-07-31T03:55:16;18.20;;;6.30;;
3175;SDS011;1599;51.564;6.990;2023-07-31T03:57:42;16.23;;;6.10;;
3175;SDS011;1599;51.564;6.990;2023-07-31T04:00:08;17.60;;;6.33;;
3175;SDS011;1599;51.564;6.990;2023-07-31T04:02:35;18.07;;;7.17;;
3175;SDS011;1599;51.564;6.990;2023-07-31T04:05:01;18.80;;;7.10;;
3175;SDS011;1599;51.564;6.990;2023-07-31T04:07:27;22.77;;;7.27;;
3175;SDS011;1599;51.564;6.990;2023-07-31T04:09:53;15.23;;;7.40;;
3175;SDS011;1599;51.564;6.990;2023-07-31T04:12:19;24.63;;;7.30;;
3175;SDS011;1599;51.564;6.990;2023-07-31T04:14:44;20.27;;;7.40;;
3175;SDS011;1599;51.564;6.990;2023-07-31T04:17:10;14.60;;;6.70;;
3175;SDS011;1599;51.564;6.990;2023-07-31T04:19:36;17.70;;;7.50;;
3175;SDS011;1599;51.564;6.990;2023-07-31T04:22:03;13.60;;;6.80;;
3175;SDS011;1599;51.564;6.990;2023-07-31T04:24:29;21.77;;;7.80;;
3175;SDS011;1599;51.564;6.990;2023-07-31T04:26:58;23.20;;;7.53;;
3175;SDS011;1599;51.564;6.990;2023-07-31T04:29:24;17.60;;;7.17;;
3175;SDS011;1599;51.564;6.990;2023-07-31T04:31:49;21.27;;;7.40;;
3175;SDS011;1599;51.564;6.990;2023-07-31T04:34:15;19.33;;;7.60;;
3175;SDS011;1599;51.564;6.990;2023-07-31T04:36:41;15.97;;;6.87;;
3175;SDS011;1599;51.564;6.990;2023-07-31T04:39:07;19.90;;;7.83;;
3175;SDS011;1599;51.564;6.990;2023-07-31T04:41:36;25.20;;;7.57;;
3175;SDS011;1599;51.564;6.990;2023-07-31T04:44:01;20.07;;;7.73;;
3175;SDS011;1599;51.564;6.990;2023-07-31T04:46:29;11.93;;;5.80;;
3175;SDS011;1599;51.564;6.990;2023-07-31T04:48:55;16.40;;;7.90;;
3175;SDS011;1599;51.564;6.990;2023-07-31T04:51:21;14.63;;;7.10;;
3175;SDS011;1599;51.564;6.990;2023-07-31T04:53:48;16.03;;;6.40;;
3175;SDS011;1599;51.564;6.990;2023-07-31T04:56:15;22.50;;;7.90;;
3175;SDS011;1599;51.564;6.990;2023-07-31T04:58:41;19.03;;;7.50;;
3175;SDS011;1599;51.564;6.990;2023-07-31T05:01:07;19.30;;;7.00;;
3175;SDS011;1599;51.564;6.990;2023-07-31T05:03:33;10.60;;;7.00;;
3175;SDS011;1599;51.564;6.990;2023-07-31T05:05:59;28.87;;;8.27;;
3175;SDS011;1599;51.564;6.990;2023-07-31T05:08:25;13.40;;;6.60;;
3175;SDS011;1599;51.564;6.990;2023-07-31T05:10:50;16.70;;;7.37;;
3175;SDS011;1599;51.564;6.990;2023-07-31T05:13:16;15.70;;;7.20;;
3175;SDS011;1599;51.564;6.990;2023-07-31T05:15:42;16.97;;;6.50;;
3175;SDS011;1599;51.564;6.990;2023-07-31T05:18:08;21.20;;;6.80;;
3175;SDS011;1599;51.564;6.990;2023-07-31T05:20:34;12.93;;;7.10;;
3175;SDS011;1599;51.564;6.990;2023-07-31T05:23:00;19.03;;;8.10;;
3175;SDS011;1599;51.564;6.990;2023-07-31T05:25:26;13.57;;;7.40;;
3175;SDS011;1599;51.564;6.990;2023-07-31T05:27:52;12.90;;;6.70;;
3175;SDS011;1599;51.564;6.990;2023-07-31T05:30:18;15.03;;;8.83;;
3175;SDS011;1599;51.564;6.990;2023-07-31T05:32:44;12.53;;;7.63;;
3175;SDS011;1599;51.564;6.990;2023-07-31T05:35:09;15.53;;;7.60;;
3175;SDS011;1599;51.564;6.990;2023-07-31T05:37:35;15.90;;;8.00;;
3175;SDS011;1599;51.564;6.990;2023-07-31T05:40:01;12.47;;;7.17;;
3175;SDS011;1599;51.564;6.990;2023-07-31T05:42:27;12.30;;;7.87;;
3175;SDS011;1599;51.564;6.990;2023-07-31T05:44:53;14.60;;;8.17;;
3175;SDS011;1599;51.564;6.990;2023-07-31T05:47:19;16.73;;;7.73;;
3175;SDS011;1599;51.564;6.990;2023-07-31T05:49:45;15.73;;;6.90;;
3175;SDS011;1599;51.564;6.990;2023-07-31T05:52:20;13.37;;;8.20;;
3175;SDS011;1599;51.564;6.990;2023-07-31T05:54:49;25.10;;;9.57;;
3175;SDS011;1599;51.564;6.990;2023-07-31T05:57:15;16.03;;;10.30;;
3175;SDS011;1599;51.564;6.990;2023-07-31T05:59:41;17.93;;;9.70;;
3175;SDS011;1599;51.564;6.990;2023-07-31T06:02:07;19.60;;;9.40;;
3175;SDS011;1599;51.564;6.990;2023-07-31T06:04:33;23.60;;;9.67;;
3175;SDS011;1599;51.564;6.990;2023-07-31T06:06:59;23.63;;;9.90;;
3175;SDS011;1599;51.564;6.990;2023-07-31T06:09:25;23.37;;;10.90;;
3175;SDS011;1599;51.564;6.990;2023-07-31T06:11:51;18.23;;;9.80;;
3175;SDS011;1599;51.564;6.990;2023-07-31T06:14:17;20.83;;;9.83;;
3175;SDS011;1599;51.564;6.990;2023-07-31T06:16:46;23.53;;;9.37;;
3175;SDS011;1599;51.564;6.990;2023-07-31T06:19:11;18.50;;;10.03;;
3175;SDS011;1599;51.564;6.990;2023-07-31T06:21:37;17.33;;;9.80;;
3175;SDS011;1599;51.564;6.990;2023-07-31T06:24:04;19.03;;;9.30;;
3175;SDS011;1599;51.564;6.990;2023-07-31T06:26:34;29.40;;;10.23;;
3175;SDS011;1599;51.564;6.990;2023-07-31T06:28:59;18.37;;;9.07;;
3175;SDS011;1599;51.564;6.990;2023-07-31T06:31:25;18.50;;;9.33;;
3175;SDS011;1599;51.564;6.990;2023-07-31T06:33:51;15.57;;;8.87;;
3175;SDS011;1599;51.564;6.990;2023-07-31T06:36:18;14.53;;;8.80;;
3175;SDS011;1599;51.564;6.990;2023-07-31T06:38:43;23.00;;;9.53;;
3175;SDS011;1599;51.564;6.990;2023-07-31T06:41:09;21.03;;;10.30;;
3175;SDS011;1599;51.564;6.990;2023-07-31T06:43:35;18.13;;;8.37;;
3175;SDS011;1599;51.564;6.990;2023-07-31T06:46:05;21.50;;;10.10;;
3175;SDS011;1599;51.564;6.990;2023-07-31T06:48:33;17.03;;;10.20;;
3175;SDS011;1599;51.564;6.990;2023-07-31T06:51:00;19.17;;;10.20;;
3175;SDS011;1599;51.564;6.990;2023-07-31T06:53:26;16.90;;;11.00;;
3175;SDS011;1599;51.564;6.990;2023-07-31T06:55:52;17.10;;;10.10;;
3175;SDS011;1599;51.564;6.990;2023-07-31T06:58:17;15.17;;;9.50;;
3175;SDS011;1599;51.564;6.990;2023-07-31T07:00:43;24.30;;;9.70;;
3175;SDS011;1599;51.564;6.990;2023-07-31T07:03:09;15.50;;;9.77;;
3175;SDS011;1599;51.564;6.990;2023-07-31T07:05:35;17.80;;;9.73;;
3175;SDS011;1599;51.564;6.990;2023-07-31T07:08:01;14.97;;;9.47;;
3175;SDS011;1599;51.564;6.990;2023-07-31T07:10:27;18.00;;;9.97;;
3175;SDS011;1599;51.564;6.990;2023-07-31T07:12:53;19.70;;;9.33;;
3175;SDS011;1599;51.564;6.990;2023-07-31T07:15:20;18.13;;;9.07;;
3175;SDS011;1599;51.564;6.990;2023-07-31T07:17:49;17.60;;;9.10;;
3175;SDS011;1599;51.564;6.990;2023-07-31T07:20:14;16.67;;;9.30;;
3175;SDS011;1599;51.564;6.990;2023-07-31T07:22:40;15.40;;;8.80;;
3175;SDS011;1599;51.564;6.990;2023-07-31T07:25:08;14.17;;;8.60;;
3175;SDS011;1599;51.564;6.990;2023-07-31T07:27:34;16.67;;;9.40;;
3175;SDS011;1599;51.564;6.990;2023-07-31T07:30:00;12.83;;;8.33;;
3175;SDS011;1599;51.564;6.990;2023-07-31T07:32:26;16.37;;;9.97;;
3175;SDS011;1599;51.564;6.990;2023-07-31T07:34:55;16.97;;;10.33;;
3175;SDS011;1599;51.564;6.990;2023-07-31T07:37:21;17.90;;;7.53;;
3175;SDS011;1599;51.564;6.990;2023-07-31T07:39:47;13.57;;;8.60;;
3175;SDS011;1599;51.564;6.990;2023-07-31T07:42:13;16.97;;;8.67;;
3175;SDS011;1599;51.564;6.990;2023-07-31T07:44:38;13.67;;;8.80;;
3175;SDS011;1599;51.564;6.990;2023-07-31T07:47:04;13.97;;;9.10;;
3175;SDS011;1599;51.564;6.990;2023-07-31T07:49:34;17.10;;;9.10;;
3175;SDS011;1599;51.564;6.990;2023-07-31T07:52:00;16.20;;;8.97;;
3175;SDS011;1599;51.564;6.990;2023-07-31T07:54:27;18.07;;;9.07;;
3175;SDS011;1599;51.564;6.990;2023-07-31T07:56:53;20.83;;;9.80;;
3175;SDS011;1599;51.564;6.990;2023-07-31T07:59:21;22.93;;;10.57;;
3175;SDS011;1599;51.564;6.990;2023-07-31T08:01:47;14.47;;;10.10;;
3175;SDS011;1599;51.564;6.990;2023-07-31T08:04:22;12.20;;;8.83;;
3175;SDS011;1599;51.564;6.990;2023-07-31T08:06:48;13.60;;;9.20;;
3175;SDS011;1599;51.564;6.990;2023-07-31T08:09:14;16.97;;;8.23;;
3175;SDS011;1599;51.564;6.990;2023-07-31T08:11:40;14.10;;;8.43;;
3175;SDS011;1599;51.564;6.990;2023-07-31T08:14:06;12.93;;;7.87;;
3175;SDS011;1599;51.564;6.990;2023-07-31T08:16:32;12.10;;;7.40;;
3175;SDS011;1599;51.564;6.990;2023-07-31T08:18:58;11.00;;;7.20;;
3175;SDS011;1599;51.564;6.990;2023-07-31T08:21:23;9.90;;;6.63;;
3175;SDS011;1599;51.564;6.990;2023-07-31T08:23:52;10.80;;;6.63;;
3175;SDS011;1599;51.564;6.990;2023-07-31T08:26:18;9.20;;;5.77;;
3175;SDS011;1599;51.564;6.990;2023-07-31T08:28:45;10.77;;;6.60;;
3175;SDS011;1599;51.564;6.990;2023-07-31T08:31:12;11.00;;;6.33;;
3175;SDS011;1599;51.564;6.990;2023-07-31T08:33:38;14.30;;;7.63;;
3175;SDS011;1599;51.564;6.990;2023-07-31T08:36:05;10.90;;;7.40;;
3175;SDS011;1599;51.564;6.990;2023-07-31T08:38:31;11.37;;;7.17;;
3175;SDS011;1599;51.564;6.990;2023-07-31T08:40:57;12.00;;;8.30;;
3175;SDS011;1599;51.564;6.990;2023-07-31T08:43:26;9.73;;;7.60;;
3175;SDS011;1599;51.564;6.990;2023-07-31T08:45:52;10.17;;;8.00;;
3175;SDS011;1599;51.564;6.990;2023-07-31T08:48:22;9.10;;;7.50;;
3175;SDS011;1599;51.564;6.990;2023-07-31T08:50:52;12.30;;;7.87;;
3175;SDS011;1599;51.564;6.990;2023-07-31T08:53:21;15.33;;;8.57;;
3175;SDS011;1599;51.564;6.990;2023-07-31T08:55:47;14.13;;;7.90;;
3175;SDS011;1599;51.564;6.990;2023-07-31T08:58:23;10.50;;;7.77;;
3175;SDS011;1599;51.564;6.990;2023-07-31T09:00:50;14.97;;;7.70;;
3175;SDS011;1599;51.564;6.990;2023-07-31T09:03:17;16.40;;;7.60;;
3175;SDS011;1599;51.564;6.990;2023-07-31T09:05:44;10.57;;;7.40;;
3175;SDS011;1599;51.564;6.990;2023-07-31T09:08:12;15.50;;;7.60;;
3175;SDS011;1599;51.564;6.990;2023-07-31T09:10:43;11.50;;;7.03;;
3175;SDS011;1599;51.564;6.990;2023-07-31T09:13:11;11.37;;;7.20;;
3175;SDS011;1599;51.564;6.990;2023-07-31T09:15:38;8.50;;;6.40;;
3175;SDS011;1599;51.564;6.990;2023-07-31T09:18:05;8.13;;;6.23;;
3175;SDS011;1599;51.564;6.990;2023-07-31T09:20:32;10.13;;;6.20;;
3175;SDS011;1599;51.564;6.990;2023-07-31T09:23:06;8.97;;;7.13;;
3175;SDS011;1599;51.564;6.990;2023-07-31T09:25:37;11.20;;;7.07;;
3175;SDS011;1599;51.564;6.990;2023-07-31T09:28:05;11.37;;;7.80;;
3175;SDS011;1599;51.564;6.990;2023-07-31T09:30:51;18.60;;;7.40;;
3175;SDS011;1599;51.564;6.990;2023-07-31T09:33:17;16.03;;;8.97;;
3175;SDS011;1599;51.564;6.990;2023-07-31T09:35:50;13.90;;;8.00;;
3175;SDS011;1599;51.564;6.990;2023-07-31T09:38:16;12.63;;;8.20;;
3175;SDS011;1599;51.564;6.990;2023-07-31T09:40:43;12.20;;;8.50;;
3175;SDS011;1599;51.564;6.990;2023-07-31T09:43:25;13.07;;;8.80;;
3175;SDS011;1599;51.564;6.990;2023-07-31T09:46:26;17.57;;;7.83;;
3175;SDS011;1599;51.564;6.990;2023-07-31T09:48:52;15.57;;;7.53;;
3175;SDS011;1599;51.564;6.990;2023-07-31T09:51:25;10.97;;;7.13;;
3175;SDS011;1599;51.564;6.990;2023-07-31T09:53:52;14.60;;;7.50;;
3175;SDS011;1599;51.564;6.990;2023-07-31T09:56:18;12.47;;;8.03;;
3175;SDS011;1599;51.564;6.990;2023-07-31T09:58:46;11.40;;;8.57;;
3175;SDS011;1599;51.564;6.990;2023-07-31T10:01:13;10.37;;;7.90;;
3175;SDS011;1599;51.564;6.990;2023-07-31T10:03:39;11.20;;;7.17;;
3175;SDS011;1599;51.564;6.990;2023-07-31T10:06:05;12.70;;;7.33;;
3175;SDS011;1599;51.564;6.990;2023-07-31T10:08:34;11.00;;;7.50;;
3175;SDS011;1599;51.564;6.990;2023-07-31T10:11:01;8.53;;;7.63;;
3175;SDS011;1599;51.564;6.990;2023-07-31T10:13:29;11.50;;;8.60;;
3175;SDS011;1599;51.564;6.990;2023-07-31T10:15:58;9.30;;;7.43;;
3175;SDS011;1599;51.564;6.990;2023-07-31T10:18:28;10.13;;;7.57;;
3175;SDS011;1599;51.564;6.990;2023-07-31T10:20:54;10.93;;;7.97;;
3175;SDS011;1599;51.564;6.990;2023-07-31T10:23:21;8.83;;;7.30;;
3175;SDS011;1599;51.564;6.990;2023-07-31T10:25:49;9.87;;;6.90;;
3175;SDS011;1599;51.564;6.990;2023-07-31T10:28:19;8.97;;;6.57;;
3175;SDS011;1599;51.564;6.990;2023-07-31T10:30:46;9.37;;;6.83;;
3175;SDS011;1599;51.564;6.990;2023-07-31T10:33:12;8.40;;;6.20;;
3175;SDS011;1599;51.564;6.990;2023-07-31T10:35:38;7.17;;;5.70;;
3175;SDS011;1599;51.564;6.990;2023-07-31T10:38:11;9.60;;;6.20;;
3175;SDS011;1599;51.564;6.990;2023-07-31T10:40:37;9.03;;;6.13;;
3175;SDS011;1599;51.564;6.990;2023-07-31T10:43:04;9.37;;;6.77;;
3175;SDS011;1599;51.564;6.990;2023-07-31T10:45:37;9.23;;;6.37;;
3175;SDS011;1599;51.564;6.990;2023-07-31T10:48:17;7.80;;;6.50;;
3175;SDS011;1599;51.564;6.990;2023-07-31T10:50:49;10.80;;;6.53;;
3175;SDS011;1599;51.564;6.990;2023-07-31T10:53:33;9.87;;;6.90;;
3175;SDS011;1599;51.564;6.990;2023-07-31T10:56:03;12.03;;;7.47;;
3175;SDS011;1599;51.564;6.990;2023-07-31T10:58:33;9.60;;;6.77;;
3175;SDS011;1599;51.564;6.990;2023-07-31T11:01:01;10.10;;;7.03;;
3175;SDS011;1599;51.564;6.990;2023-07-31T11:03:48;14.30;;;7.20;;
3175;SDS011;1599;51.564;6.990;2023-07-31T11:06:18;10.17;;;7.03;;
3175;SDS011;1599;51.564;6.990;2023-07-31T11:08:45;11.47;;;7.50;;
3175;SDS011;1599;51.564;6.990;2023-07-31T11:11:17;8.93;;;7.20;;
3175;SDS011;1599;51.564;6.990;2023-07-31T11:13:49;9.23;;;6.47;;
3175;SDS011;1599;51.564;6.990;2023-07-31T11:16:18;7.90;;;5.80;;
3175;SDS011;1599;51.564;6.990;2023-07-31T11:18:46;11.23;;;7.07;;
3175;SDS011;1599;51.564;6.990;2023-07-31T11:23:41;7.90;;;6.10;;
3175;SDS011;1599;51.564;6.990;2023-07-31T11:26:10;10.73;;;6.40;;
3175;SDS011;1599;51.564;6.990;2023-07-31T11:28:37;8.50;;;6.53;;
3175;SDS011;1599;51.564;6.990;2023-07-31T11:31:03;8.60;;;5.67;;
3175;SDS011;1599;51.564;6.990;2023-07-31T11:33:29;13.43;;;6.87;;
3175;SDS011;1599;51.564;6.990;2023-07-31T11:35:55;8.90;;;5.90;;
3175;SDS011;1599;51.564;6.990;2023-07-31T11:38:25;10.10;;;5.80;;
3175;SDS011;1599;51.564;6.990;2023-07-31T11:40:54;9.30;;;6.97;;
3175;SDS011;1599;51.564;6.990;2023-07-31T11:43:25;9.50;;;5.77;;
3175;SDS011;1599;51.564;6.990;2023-07-31T11:45:52;9.00;;;5.70;;
3175;SDS011;1599;51.564;6.990;2023-07-31T11:48:27;8.50;;;6.40;;
3175;SDS011;1599;51.564;6.990;2023-07-31T11:50:58;9.30;;;6.43;;
3175;SDS011;1599;51.564;6.990;2023-07-31T11:56:08;10.77;;;6.60;;
3175;SDS011;1599;51.564;6.990;2023-07-31T11:58:36;11.40;;;6.70;;
3175;SDS011;1599;51.564;6.990;2023-07-31T12:01:04;11.60;;;6.13;;
3175;SDS011;1599;51.564;6.990;2023-07-31T12:03:31;6.20;;;5.00;;
3175;SDS011;1599;51.564;6.990;2023-07-31T12:05:58;7.77;;;6.13;;
3175;SDS011;1599;51.564;6.990;2023-07-31T12:08:25;9.37;;;6.17;;
3175;SDS011;1599;51.564;6.990;2023-07-31T12:10:51;15.13;;;6.33;;
3175;SDS011;1599;51.564;6.990;2023-07-31T12:13:28;7.97;;;5.53;;
3175;SDS011;1599;51.564;6.990;2023-07-31T12:15:57;7.90;;;6.10;;
3175;SDS011;1599;51.564;6.990;2023-07-31T12:18:28;9.73;;;5.30;;
3175;SDS011;1599;51.564;6.990;2023-07-31T12:21:06;8.27;;;5.67;;
3175;SDS011;1599;51.564;6.990;2023-07-31T12:23:36;7.13;;;5.00;;
3175;SDS011;1599;51.564;6.990;2023-07-31T12:26:13;8.63;;;5.40;;
3175;SDS011;1599;51.564;6.990;2023-07-31T12:28:41;6.40;;;4.93;;
3175;SDS011;1599;51.564;6.990;2023-07-31T12:33:42;8.27;;;5.47;;
3175;SDS011;1599;51.564;6.990;2023-07-31T12:36:09;5.50;;;4.80;;
3175;SDS011;1599;51.564;6.990;2023-07-31T12:38:57;7.53;;;5.80;;
3175;SDS011;1599;51.564;6.990;2023-07-31T12:41:23;8.80;;;5.60;;
3175;SDS011;1599;51.564;6.990;2023-07-31T12:43:49;8.60;;;5.83;;
3175;SDS011;1599;51.564;6.990;2023-07-31T12:46:15;6.37;;;4.67;;
3175;SDS011;1599;51.564;6.990;2023-07-31T12:48:42;6.40;;;5.17;;
3175;SDS011;1599;51.564;6.990;2023-07-31T12:51:08;7.63;;;5.90;;
3175;SDS011;1599;51.564;6.990;2023-07-31T12:53:33;7.57;;;5.67;;
3175;SDS011;1599;51.564;6.990;2023-07-31T12:55:59;8.57;;;5.33;;
3175;SDS011;1599;51.564;6.990;2023-07-31T12:58:25;8.57;;;5.20;;
3175;SDS011;1599;51.564;6.990;2023-07-31T13:00:51;6.90;;;5.20;;
3175;SDS011;1599;51.564;6.990;2023-07-31T13:03:17;6.33;;;5.13;;
3175;SDS011;1599;51.564;6.990;2023-07-31T13:05:43;9.23;;;6.80;;
3175;SDS011;1599;51.564;6.990;2023-07-31T13:08:08;8.40;;;5.70;;
3175;SDS011;1599;51.564;6.990;2023-07-31T13:10:34;8.13;;;5.13;;
3175;SDS011;1599;51.564;6.990;2023-07-31T13:13:00;5.80;;;4.33;;
3175;SDS011;1599;51.564;6.990;2023-07-31T13:15:26;8.93;;;4.93;;
3175;SDS011;1599;51.564;6.990;2023-07-31T13:17:51;6.37;;;4.50;;
3175;SDS011;1599;51.564;6.990;2023-07-31T13:20:17;10.63;;;6.33;;
3175;SDS011;1599;51.564;6.990;2023-07-31T13:22:43;10.43;;;5.50;;
3175;SDS011;1599;51.564;6.990;2023-07-31T13:25:09;7.70;;;4.90;;
3175;SDS011;1599;51.564;6.990;2023-07-31T13:27:35;7.07;;;4.70;;
3175;SDS011;1599;51.564;6.990;2023-07-31T13:30:01;9.03;;;5.33;;
3175;SDS011;1599;51.564;6.990;2023-07-31T13:32:27;6.97;;;5.37;;
3175;SDS011;1599;51.564;6.990;2023-07-31T13:34:53;9.50;;;5.77;;
3175;SDS011;1599;51.564;6.990;2023-07-31T13:37:18;6.80;;;5.90;;
3175;SDS011;1599;51.564;6.990;2023-07-31T13:39:44;10.10;;;6.53;;
3175;SDS011;1599;51.564;6.990;2023-07-31T13:42:10;9.63;;;6.03;;
3175;SDS011;1599;51.564;6.990;2023-07-31T13:44:37;9.90;;;7.33;;
3175;SDS011;1599;51.564;6.990;2023-07-31T13:47:04;9.60;;;6.83;;
3175;SDS011;1599;51.564;6.990;2023-07-31T13:49:30;10.70;;;7.53;;
3175;SDS011;1599;51.564;6.990;2023-07-31T13:51:57;8.80;;;6.87;;
3175;SDS011;1599;51.564;6.990;2023-07-31T13:54:23;10.60;;;5.90;;
3175;SDS011;1599;51.564;6.990;2023-07-31T13:56:50;8.37;;;6.23;;
3175;SDS011;1599;51.564;6.990;2023-07-31T13:59:17;8.37;;;6.80;;
3175;SDS011;1599;51.564;6.990;2023-07-31T14:01:43;8.63;;;5.67;;
3175;SDS011;1599;51.564;6.990;2023-07-31T14:04:09;8.70;;;6.23;;
3175;SDS011;1599;51.564;6.990;2023-07-31T14:06:35;10.27;;;6.00;;
3175;SDS011;1599;51.564;6.990;2023-07-31T14:09:01;9.30;;;6.57;;
3175;SDS011;1599;51.564;6.990;2023-07-31T14:11:28;8.90;;;6.00;;
3175;SDS011;1599;51.564;6.990;2023-07-31T14:13:56;10.87;;;7.37;;
3175;SDS011;1599;51.564;6.990;2023-07-31T14:16:22;7.73;;;5.60;;
3175;SDS011;1599;51.564;6.990;2023-07-31T14:18:48;7.90;;;6.20;;
3175;SDS011;1599;51.564;6.990;2023-07-31T14:21:14;7.63;;;6.60;;
3175;SDS011;1599;51.564;6.990;2023-07-31T14:23:40;11.40;;;6.00;;
3175;SDS011;1599;51.564;6.990;2023-07-31T14:26:07;8.80;;;5.50;;
3175;SDS011;1599;51.564;6.990;2023-07-31T14:28:33;10.13;;;6.83;;
3175;SDS011;1599;51.564;6.990;2023-07-31T14:30:59;8.63;;;5.33;;
3175;SDS011;1599;51.564;6.990;2023-07-31T14:33:24;8.53;;;5.17;;
3175;SDS011;1599;51.564;6.990;2023-07-31T14:35:50;8.27;;;5.40;;
3175;SDS011;1599;51.564;6.990;2023-07-31T14:38:16;14.60;;;6.17;;
3175;SDS011;1599;51.564;6.990;2023-07-31T14:40:42;12.23;;;5.63;;
3175;SDS011;1599;51.564;6.990;2023-07-31T14:43:08;10.70;;;5.53;;
3175;SDS011;1599;51.564;6.990;2023-07-31T14:45:34;7.80;;;5.70;;
3175;SDS011;1599;51.564;6.990;2023-07-31T14:48:00;7.63;;;5.20;;
3175;SDS011;1599;51.564;6.990;2023-07-31T14:50:25;11.33;;;5.43;;
3175;SDS011;1599;51.564;6.990;2023-07-31T14:52:51;10.90;;;5.33;;
3175;SDS011;1599;51.564;6.990;2023-07-31T14:55:18;7.27;;;4.40;;
3175;SDS011;1599;51.564;6.990;2023-07-31T14:57:44;9.07;;;5.60;;
3175;SDS011;1599;51.564;6.990;2023-07-31T15:00:09;7.67;;;5.33;;
3175;SDS011;1599;51.564;6.990;2023-07-31T15:02:36;9.03;;;5.63;;
3175;SDS011;1599;51.564;6.990;2023-07-31T15:05:02;9.27;;;5.80;;
3175;SDS011;1599;51.564;6.990;2023-07-31T15:07:29;9.77;;;5.80;;
3175;SDS011;1599;51.564;6.990;2023-07-31T15:09:55;9.03;;;5.30;;
3175;SDS011;1599;51.564;6.990;2023-07-31T15:12:20;8.67;;;5.30;;
3175;SDS011;1599;51.564;6.990;2023-07-31T15:14:48;9.03;;;5.93;;
3175;SDS011;1599;51.564;6.990;2023-07-31T15:17:14;8.57;;;5.30;;
3175;SDS011;1599;51.564;6.990;2023-07-31T15:19:40;9.60;;;5.57;;
3175;SDS011;1599;51.564;6.990;2023-07-31T15:22:06;12.53;;;5.80;;
3175;SDS011;1599;51.564;6.990;2023-07-31T15:24:32;11.70;;;5.83;;